MCBH Kaneohe Bay, Hawaii
Current Conditions -  °F | °C
As of 8:12 AM on Thursday 18 Dec 2014 (Local Time) from PHNG Reporting Station
Broken Clouds Broken Clouds  
Wind Chill: 75°   Ceiling: 2500
Heat Index: 75°   Visibility: 10mi
Dew Point: 68°   Wind: 10mph
Humidity: 79%   Direction: 80°E
Pressure: 30.19"   Gusts: 21mph
Location:  21.45°N, 157.75°W
Report Text: PHNG 181812Z 08009G18KT 10SM SCT019 BKN025 BKN033 24/20 A3019 RMK AO2 T02390200 $
Loading
Personal Weather Stations






























Interactive Weather Map New forecast layout! Learn more

10-Day Weather Forecast

Advertisements
Track Severe Weather on mobile